AVA033 KMIA-SKRG
Flight info
| Callsign | AVA033 |
|---|---|
| Flight time | 2h 26m |
| Altitude | 37000 |
| Route | NNOCE2 URSUS UP406 AKPEK AKPEK4C |
| Aircraft | A20N/M-SDE1FGHIJ2RWYZ/LB1 |
Departure
| Time | 2026-04-22 08:15 |
|---|---|
| Airport | Miami International Airport (KMIA) |
Arrival
| Time | 2026-04-22 10:41 |
|---|---|
| Airport | Jose Maria Córdova International Airport (SKRG) |
| Time | Latitude | Longitude | Altitude | Speed | Heading |
|---|---|---|---|---|---|
| 2026-04-22 07:28 | 25.79100 | -80.27403 | 13 ft | 0 kts | 113° |
| 2026-04-22 08:00 | 25.79104 | -80.27412 | 13 ft | 2 kts | 113° |
| 2026-04-22 08:00 | 25.79110 | -80.27428 | 13 ft | 2 kts | 113° |
| 2026-04-22 08:00 | 25.79116 | -80.27445 | 13 ft | 2 kts | 113° |
| 2026-04-22 08:00 | 25.79122 | -80.27460 | 13 ft | 2 kts | 113° |
| 2026-04-22 08:01 | 25.79128 | -80.27475 | 13 ft | 2 kts | 114° |
| 2026-04-22 08:01 | 25.79139 | -80.27486 | 13 ft | 2 kts | 163° |
| 2026-04-22 08:01 | 25.79153 | -80.27487 | 13 ft | 2 kts | 182° |
| 2026-04-22 08:01 | 25.79161 | -80.27487 | 13 ft | 0 kts | 175° |
| 2026-04-22 08:04 | 25.79158 | -80.27487 | 13 ft | 1 kts | 175° |
| 2026-04-22 08:04 | 25.79146 | -80.27486 | 13 ft | 2 kts | 176° |
| 2026-04-22 08:04 | 25.79119 | -80.27485 | 13 ft | 5 kts | 178° |
| 2026-04-22 08:05 | 25.79080 | -80.27483 | 13 ft | 6 kts | 178° |
| 2026-04-22 08:05 | 25.79034 | -80.27481 | 13 ft | 6 kts | 177° |
| 2026-04-22 08:05 | 25.78984 | -80.27478 | 13 ft | 7 kts | 176° |
| 2026-04-22 08:05 | 25.78929 | -80.27485 | 13 ft | 8 kts | 208° |
| 2026-04-22 08:06 | 25.78902 | -80.27541 | 13 ft | 9 kts | 259° |
| 2026-04-22 08:06 | 25.78889 | -80.27615 | 13 ft | 10 kts | 259° |
| 2026-04-22 08:06 | 25.78878 | -80.27699 | 13 ft | 11 kts | 267° |
| 2026-04-22 08:06 | 25.78876 | -80.27791 | 13 ft | 12 kts | 276° |
| 2026-04-22 08:07 | 25.78914 | -80.27876 | 13 ft | 12 kts | 300° |
| 2026-04-22 08:07 | 25.78958 | -80.27964 | 13 ft | 13 kts | 299° |
| 2026-04-22 08:07 | 25.79005 | -80.28056 | 13 ft | 14 kts | 300° |
| 2026-04-22 08:07 | 25.79054 | -80.28152 | 13 ft | 14 kts | 299° |
| 2026-04-22 08:08 | 25.79104 | -80.28250 | 13 ft | 14 kts | 299° |
| 2026-04-22 08:08 | 25.79156 | -80.28353 | 13 ft | 15 kts | 300° |
| 2026-04-22 08:08 | 25.79232 | -80.28433 | 13 ft | 15 kts | 304° |
| 2026-04-22 08:08 | 25.79285 | -80.28537 | 13 ft | 15 kts | 299° |
| 2026-04-22 08:09 | 25.79339 | -80.28642 | 13 ft | 15 kts | 300° |
| 2026-04-22 08:09 | 25.79394 | -80.28750 | 13 ft | 16 kts | 299° |
| 2026-04-22 08:09 | 25.79450 | -80.28859 | 13 ft | 16 kts | 299° |
| 2026-04-22 08:09 | 25.79506 | -80.28970 | 13 ft | 16 kts | 299° |
| 2026-04-22 08:10 | 25.79564 | -80.29082 | 13 ft | 16 kts | 300° |
| 2026-04-22 08:10 | 25.79622 | -80.29195 | 13 ft | 16 kts | 299° |
| 2026-04-22 08:10 | 25.79680 | -80.29309 | 13 ft | 17 kts | 300° |
| 2026-04-22 08:10 | 25.79740 | -80.29426 | 13 ft | 17 kts | 299° |
| 2026-04-22 08:11 | 25.79799 | -80.29542 | 13 ft | 17 kts | 300° |
| 2026-04-22 08:11 | 25.79859 | -80.29658 | 13 ft | 17 kts | 300° |
| 2026-04-22 08:11 | 25.79912 | -80.29779 | 13 ft | 17 kts | 294° |
| 2026-04-22 08:11 | 25.79960 | -80.29903 | 13 ft | 17 kts | 292° |
| 2026-04-22 08:12 | 25.79996 | -80.30038 | 13 ft | 17 kts | 285° |
| 2026-04-22 08:12 | 25.80067 | -80.30124 | 13 ft | 16 kts | 352° |
| 2026-04-22 08:12 | 25.80182 | -80.30138 | 13 ft | 16 kts | 358° |
| 2026-04-22 08:12 | 25.80284 | -80.30138 | 13 ft | 4 kts | 22° |
| 2026-04-22 08:13 | 25.80293 | -80.30105 | 13 ft | 5 kts | 87° |
| 2026-04-22 08:13 | 25.80294 | -80.30101 | 13 ft | 0 kts | 88° |
| 2026-04-22 08:14 | 25.80298 | -80.29961 | 13 ft | 52 kts | 87° |
| 2026-04-22 08:14 | 25.80326 | -80.29303 | 14 ft | 117 kts | 87° |
| 2026-04-22 08:14 | 25.80371 | -80.28209 | 158 ft | 154 kts | 86° |
| 2026-04-22 08:15 | 25.80424 | -80.27020 | 715 ft | 157 kts | 89° |
| 2026-04-22 08:15 | 25.80117 | -80.25830 | 1458 ft | 154 kts | 115° |
| 2026-04-22 08:15 | 25.79574 | -80.24685 | 1974 ft | 161 kts | 110° |
| 2026-04-22 08:15 | 25.79055 | -80.23412 | 2363 ft | 179 kts | 110° |
| 2026-04-22 08:16 | 25.78491 | -80.22031 | 2777 ft | 196 kts | 111° |
| 2026-04-22 08:16 | 25.77834 | -80.20455 | 3161 ft | 219 kts | 111° |
| 2026-04-22 08:16 | 25.77066 | -80.18640 | 3684 ft | 239 kts | 112° |
| 2026-04-22 08:16 | 25.76125 | -80.16663 | 4372 ft | 254 kts | 116° |
| 2026-04-22 08:17 | 25.75106 | -80.14616 | 5289 ft | 260 kts | 116° |
| 2026-04-22 08:17 | 25.74030 | -80.12524 | 6140 ft | 269 kts | 123° |
| 2026-04-22 08:17 | 25.72222 | -80.10958 | 6944 ft | 284 kts | 160° |
| 2026-04-22 08:17 | 25.69825 | -80.10510 | 7891 ft | 290 kts | 173° |
| 2026-04-22 08:18 | 25.67375 | -80.10223 | 8805 ft | 295 kts | 173° |
| 2026-04-22 08:18 | 25.64851 | -80.09792 | 9706 ft | 300 kts | 167° |
| 2026-04-22 08:18 | 25.62337 | -80.09049 | 10531 ft | 307 kts | 163° |
| 2026-04-22 08:18 | 25.59744 | -80.08147 | 10980 ft | 328 kts | 162° |
| 2026-04-22 08:19 | 25.56992 | -80.07179 | 11367 ft | 350 kts | 162° |
| 2026-04-22 08:19 | 25.54036 | -80.06137 | 11719 ft | 371 kts | 162° |
| 2026-04-22 08:19 | 25.50932 | -80.05048 | 12271 ft | 384 kts | 162° |
| 2026-04-22 08:19 | 25.47745 | -80.03931 | 13147 ft | 386 kts | 163° |
| 2026-04-22 08:20 | 25.44552 | -80.02812 | 13967 ft | 390 kts | 163° |
| 2026-04-22 08:20 | 25.41283 | -80.01668 | 14744 ft | 394 kts | 163° |
| 2026-04-22 08:20 | 25.38035 | -80.00534 | 15461 ft | 399 kts | 163° |
| 2026-04-22 08:20 | 25.34687 | -79.99365 | 16175 ft | 404 kts | 163° |
| 2026-04-22 08:21 | 25.31328 | -79.98196 | 16872 ft | 409 kts | 163° |
| 2026-04-22 08:21 | 25.27998 | -79.96922 | 17536 ft | 414 kts | 159° |
| 2026-04-22 08:21 | 25.24737 | -79.95201 | 18183 ft | 420 kts | 152° |
| 2026-04-22 08:21 | 25.21619 | -79.93088 | 18767 ft | 427 kts | 148° |
| 2026-04-22 08:22 | 25.18552 | -79.90891 | 19351 ft | 432 kts | 148° |
| 2026-04-22 08:22 | 25.15421 | -79.88644 | 19969 ft | 436 kts | 148° |
| 2026-04-22 08:22 | 25.12248 | -79.86378 | 20522 ft | 442 kts | 149° |
| 2026-04-22 08:22 | 25.09075 | -79.84125 | 21078 ft | 446 kts | 149° |
| 2026-04-22 08:23 | 25.05924 | -79.81892 | 21598 ft | 451 kts | 149° |
| 2026-04-22 08:23 | 25.02677 | -79.79594 | 22106 ft | 456 kts | 149° |
| 2026-04-22 08:23 | 24.99437 | -79.77303 | 22613 ft | 461 kts | 149° |
| 2026-04-22 08:23 | 24.96053 | -79.74910 | 23115 ft | 465 kts | 149° |
| 2026-04-22 08:24 | 24.92757 | -79.72581 | 23616 ft | 469 kts | 150° |
| 2026-04-22 08:24 | 24.89410 | -79.70221 | 24115 ft | 472 kts | 150° |
| 2026-04-22 08:24 | 24.86099 | -79.67890 | 24580 ft | 476 kts | 150° |
| 2026-04-22 08:24 | 24.82734 | -79.65524 | 25035 ft | 479 kts | 150° |
| 2026-04-22 08:25 | 24.79335 | -79.63133 | 25463 ft | 483 kts | 150° |
| 2026-04-22 08:25 | 24.75860 | -79.60687 | 25893 ft | 486 kts | 150° |
| 2026-04-22 08:25 | 24.72365 | -79.58230 | 26306 ft | 489 kts | 150° |
| 2026-04-22 08:25 | 24.68818 | -79.55734 | 26870 ft | 488 kts | 150° |
| 2026-04-22 08:26 | 24.65399 | -79.53329 | 27468 ft | 485 kts | 151° |
| 2026-04-22 08:26 | 24.62019 | -79.50954 | 28023 ft | 484 kts | 151° |
| 2026-04-22 08:26 | 24.58617 | -79.48565 | 28565 ft | 483 kts | 151° |
| 2026-04-22 08:26 | 24.55222 | -79.46184 | 29089 ft | 481 kts | 151° |
| 2026-04-22 08:27 | 24.51828 | -79.43805 | 29619 ft | 480 kts | 152° |
| 2026-04-22 08:27 | 24.48451 | -79.41439 | 30109 ft | 480 kts | 152° |
| 2026-04-22 08:27 | 24.45026 | -79.39042 | 30562 ft | 480 kts | 152° |
| 2026-04-22 08:27 | 24.41664 | -79.36690 | 30993 ft | 480 kts | 152° |
| 2026-04-22 08:28 | 24.38264 | -79.34309 | 31377 ft | 481 kts | 152° |
| 2026-04-22 08:28 | 24.34903 | -79.31958 | 31767 ft | 481 kts | 153° |
| 2026-04-22 08:28 | 24.31482 | -79.29570 | 32141 ft | 482 kts | 153° |
| 2026-04-22 08:28 | 24.28226 | -79.27276 | 32478 ft | 483 kts | 152° |
| 2026-04-22 08:29 | 24.24847 | -79.24850 | 32857 ft | 483 kts | 152° |
| 2026-04-22 08:29 | 24.21503 | -79.22439 | 33169 ft | 484 kts | 152° |
| 2026-04-22 08:29 | 24.18112 | -79.19996 | 33406 ft | 486 kts | 152° |
| 2026-04-22 08:29 | 24.14710 | -79.17551 | 33596 ft | 489 kts | 152° |
| 2026-04-22 08:30 | 24.11290 | -79.15099 | 33825 ft | 492 kts | 152° |
| 2026-04-22 08:30 | 24.07780 | -79.12585 | 34054 ft | 494 kts | 152° |
| 2026-04-22 08:30 | 24.04260 | -79.10289 | 34303 ft | 491 kts | 158° |
| 2026-04-22 08:30 | 24.00539 | -79.08318 | 34573 ft | 486 kts | 163° |
| 2026-04-22 08:31 | 23.96734 | -79.06750 | 34826 ft | 480 kts | 169° |
| 2026-04-22 08:31 | 23.92861 | -79.05573 | 35064 ft | 475 kts | 175° |
| 2026-04-22 08:32 | 23.81393 | -79.03296 | 35114 ft | 475 kts | 178° |
| 2026-04-22 08:32 | 23.73841 | -79.01827 | 35114 ft | 474 kts | 178° |
| 2026-04-22 08:33 | 23.66489 | -79.00378 | 35123 ft | 474 kts | 178° |
| 2026-04-22 08:33 | 23.59126 | -78.98924 | 35117 ft | 475 kts | 178° |
| 2026-04-22 08:34 | 23.51935 | -78.97503 | 35108 ft | 474 kts | 178° |
| 2026-04-22 08:34 | 23.44584 | -78.96055 | 35107 ft | 475 kts | 178° |
| 2026-04-22 08:35 | 23.37163 | -78.94591 | 35100 ft | 473 kts | 178° |
| 2026-04-22 08:35 | 23.30117 | -78.93205 | 35100 ft | 473 kts | 178° |
| 2026-04-22 08:36 | 23.23159 | -78.91836 | 35100 ft | 473 kts | 178° |
| 2026-04-22 08:36 | 23.16114 | -78.90453 | 35095 ft | 473 kts | 178° |
| 2026-04-22 08:37 | 23.09064 | -78.89075 | 35096 ft | 473 kts | 178° |
| 2026-04-22 08:37 | 23.01949 | -78.87678 | 35095 ft | 471 kts | 178° |
| 2026-04-22 08:38 | 22.94936 | -78.86308 | 35096 ft | 473 kts | 178° |
| 2026-04-22 08:38 | 22.87818 | -78.84914 | 35088 ft | 471 kts | 178° |
| 2026-04-22 08:39 | 22.80684 | -78.83518 | 35080 ft | 470 kts | 178° |
| 2026-04-22 08:39 | 22.73566 | -78.82127 | 35076 ft | 471 kts | 178° |
| 2026-04-22 08:40 | 22.66350 | -78.80718 | 35075 ft | 472 kts | 178° |
| 2026-04-22 08:40 | 22.58976 | -78.79280 | 35074 ft | 472 kts | 178° |
| 2026-04-22 08:41 | 22.51539 | -78.77838 | 35074 ft | 472 kts | 178° |
| 2026-04-22 08:41 | 22.43988 | -78.76375 | 35074 ft | 470 kts | 178° |
| 2026-04-22 08:42 | 22.36455 | -78.74915 | 35075 ft | 470 kts | 178° |
| 2026-04-22 08:42 | 22.28871 | -78.73446 | 35077 ft | 470 kts | 178° |
| 2026-04-22 08:43 | 22.21316 | -78.71983 | 35078 ft | 470 kts | 178° |
| 2026-04-22 08:43 | 22.13715 | -78.70513 | 35079 ft | 470 kts | 178° |
| 2026-04-22 08:44 | 22.06092 | -78.69040 | 35080 ft | 469 kts | 178° |
| 2026-04-22 08:44 | 21.98546 | -78.67587 | 35077 ft | 470 kts | 178° |
| 2026-04-22 08:45 | 21.91005 | -78.66132 | 35078 ft | 471 kts | 178° |
| 2026-04-22 08:45 | 21.83524 | -78.64692 | 35070 ft | 470 kts | 178° |
| 2026-04-22 08:46 | 21.76183 | -78.63277 | 35069 ft | 468 kts | 178° |
| 2026-04-22 08:46 | 21.68882 | -78.61875 | 35065 ft | 469 kts | 178° |
| 2026-04-22 08:47 | 21.61590 | -78.60477 | 35057 ft | 469 kts | 178° |
| 2026-04-22 08:47 | 21.54347 | -78.59087 | 35050 ft | 469 kts | 178° |
| 2026-04-22 08:48 | 21.46949 | -78.57670 | 35048 ft | 469 kts | 178° |
| 2026-04-22 08:48 | 21.39570 | -78.56258 | 35043 ft | 469 kts | 178° |
| 2026-04-22 08:49 | 21.32240 | -78.54855 | 35041 ft | 467 kts | 178° |
| 2026-04-22 08:49 | 21.25174 | -78.53507 | 35041 ft | 468 kts | 178° |
| 2026-04-22 08:50 | 21.18053 | -78.52148 | 35051 ft | 467 kts | 178° |
| 2026-04-22 08:50 | 21.11291 | -78.50858 | 35057 ft | 467 kts | 178° |
| 2026-04-22 08:51 | 21.04609 | -78.49586 | 35054 ft | 466 kts | 178° |
| 2026-04-22 08:51 | 20.97941 | -78.48317 | 35053 ft | 467 kts | 178° |
| 2026-04-22 08:52 | 20.91189 | -78.47034 | 35036 ft | 467 kts | 177° |
| 2026-04-22 08:52 | 20.84533 | -78.45769 | 35029 ft | 466 kts | 177° |
| 2026-04-22 08:53 | 20.77867 | -78.44504 | 35029 ft | 467 kts | 177° |
| 2026-04-22 08:53 | 20.71205 | -78.43242 | 35027 ft | 466 kts | 177° |
| 2026-04-22 08:54 | 20.64553 | -78.41981 | 35023 ft | 466 kts | 177° |
| 2026-04-22 08:54 | 20.57823 | -78.40707 | 35026 ft | 465 kts | 177° |
| 2026-04-22 08:55 | 20.51064 | -78.39430 | 35020 ft | 466 kts | 177° |
| 2026-04-22 08:55 | 20.44269 | -78.38145 | 35015 ft | 465 kts | 177° |
| 2026-04-22 08:56 | 20.37480 | -78.36865 | 35014 ft | 466 kts | 177° |
| 2026-04-22 08:56 | 20.30673 | -78.35579 | 35011 ft | 466 kts | 177° |
| 2026-04-22 08:57 | 20.23878 | -78.34296 | 35011 ft | 464 kts | 178° |
| 2026-04-22 08:57 | 20.17053 | -78.33012 | 35008 ft | 464 kts | 178° |
| 2026-04-22 08:58 | 20.10216 | -78.31724 | 35002 ft | 464 kts | 177° |
| 2026-04-22 08:58 | 20.03389 | -78.30439 | 35003 ft | 465 kts | 177° |
| 2026-04-22 08:59 | 19.96591 | -78.29121 | 34995 ft | 466 kts | 175° |
| 2026-04-22 08:59 | 19.89658 | -78.27537 | 34993 ft | 466 kts | 175° |
| 2026-04-22 09:00 | 19.82809 | -78.25959 | 34990 ft | 465 kts | 175° |
| 2026-04-22 09:00 | 19.76096 | -78.24415 | 34988 ft | 466 kts | 175° |
| 2026-04-22 09:01 | 19.69274 | -78.22847 | 34990 ft | 466 kts | 174° |
| 2026-04-22 09:01 | 19.62482 | -78.21286 | 34999 ft | 466 kts | 174° |
| 2026-04-22 09:02 | 19.55727 | -78.19734 | 35006 ft | 465 kts | 175° |
| 2026-04-22 09:02 | 19.48962 | -78.18181 | 35005 ft | 464 kts | 175° |
| 2026-04-22 09:03 | 19.42203 | -78.16634 | 35001 ft | 464 kts | 175° |
| 2026-04-22 09:03 | 19.35459 | -78.15091 | 35002 ft | 464 kts | 175° |
| 2026-04-22 09:04 | 19.28695 | -78.13545 | 35000 ft | 463 kts | 175° |
| 2026-04-22 09:04 | 19.21983 | -78.12012 | 34999 ft | 463 kts | 174° |
| 2026-04-22 09:05 | 19.15262 | -78.10476 | 34998 ft | 463 kts | 174° |
| 2026-04-22 09:05 | 19.08448 | -78.08923 | 34996 ft | 463 kts | 174° |
| 2026-04-22 09:06 | 19.01600 | -78.07362 | 34994 ft | 462 kts | 174° |
| 2026-04-22 09:06 | 18.94737 | -78.05799 | 34992 ft | 462 kts | 174° |
| 2026-04-22 09:07 | 18.87841 | -78.04230 | 34991 ft | 461 kts | 174° |
| 2026-04-22 09:07 | 18.80847 | -78.02640 | 34990 ft | 461 kts | 174° |
| 2026-04-22 09:08 | 18.73798 | -78.01039 | 34986 ft | 462 kts | 174° |
| 2026-04-22 09:08 | 18.66683 | -77.99424 | 34986 ft | 462 kts | 173° |
| 2026-04-22 09:09 | 18.58964 | -77.97671 | 34987 ft | 461 kts | 174° |
| 2026-04-22 09:09 | 18.51283 | -77.95933 | 34988 ft | 461 kts | 174° |
| 2026-04-22 09:10 | 18.43627 | -77.94201 | 34994 ft | 461 kts | 174° |
| 2026-04-22 09:10 | 18.35998 | -77.92477 | 35008 ft | 462 kts | 173° |
| 2026-04-22 09:11 | 18.28311 | -77.90742 | 35015 ft | 462 kts | 173° |
| 2026-04-22 09:11 | 18.20659 | -77.89014 | 35011 ft | 461 kts | 173° |
| 2026-04-22 09:12 | 18.13053 | -77.87297 | 35000 ft | 460 kts | 173° |
| 2026-04-22 09:12 | 18.05402 | -77.85573 | 34988 ft | 460 kts | 173° |
| 2026-04-22 09:13 | 17.97810 | -77.83865 | 34979 ft | 460 kts | 173° |
| 2026-04-22 09:13 | 17.90193 | -77.82153 | 34980 ft | 460 kts | 173° |
| 2026-04-22 09:14 | 17.82618 | -77.80448 | 34979 ft | 460 kts | 173° |
| 2026-04-22 09:14 | 17.75083 | -77.78756 | 34986 ft | 460 kts | 173° |
| 2026-04-22 09:15 | 17.67490 | -77.77052 | 34987 ft | 461 kts | 173° |
| 2026-04-22 09:15 | 17.59925 | -77.75356 | 34976 ft | 460 kts | 173° |
| 2026-04-22 09:16 | 17.52300 | -77.73648 | 34970 ft | 460 kts | 172° |
| 2026-04-22 09:16 | 17.44722 | -77.71951 | 34962 ft | 459 kts | 172° |
| 2026-04-22 09:17 | 17.37131 | -77.70253 | 34967 ft | 459 kts | 172° |
| 2026-04-22 09:17 | 17.29590 | -77.68569 | 34974 ft | 460 kts | 172° |
| 2026-04-22 09:18 | 17.21997 | -77.66875 | 34976 ft | 459 kts | 172° |
| 2026-04-22 09:18 | 17.14422 | -77.65185 | 34976 ft | 459 kts | 172° |
| 2026-04-22 09:19 | 17.06901 | -77.63509 | 34975 ft | 460 kts | 172° |
| 2026-04-22 09:19 | 16.99332 | -77.61822 | 34963 ft | 460 kts | 172° |
| 2026-04-22 09:20 | 16.91766 | -77.60141 | 34953 ft | 459 kts | 172° |
| 2026-04-22 09:20 | 16.84269 | -77.58475 | 34949 ft | 458 kts | 172° |
| 2026-04-22 09:21 | 16.76716 | -77.56796 | 34958 ft | 458 kts | 172° |
| 2026-04-22 09:21 | 16.69197 | -77.55128 | 34963 ft | 458 kts | 172° |
| 2026-04-22 09:22 | 16.61749 | -77.53476 | 34968 ft | 458 kts | 172° |
| 2026-04-22 09:22 | 16.54172 | -77.51798 | 34973 ft | 458 kts | 172° |
| 2026-04-22 09:23 | 16.46504 | -77.50099 | 34970 ft | 457 kts | 171° |
| 2026-04-22 09:23 | 16.38815 | -77.48398 | 34965 ft | 457 kts | 171° |
| 2026-04-22 09:24 | 16.31113 | -77.46695 | 34956 ft | 457 kts | 171° |
| 2026-04-22 09:24 | 16.23375 | -77.44985 | 34952 ft | 456 kts | 171° |
| 2026-04-22 09:25 | 16.15671 | -77.43283 | 34955 ft | 456 kts | 171° |
| 2026-04-22 09:25 | 16.07995 | -77.41587 | 34953 ft | 456 kts | 171° |
| 2026-04-22 09:26 | 16.00262 | -77.39881 | 34963 ft | 456 kts | 171° |
| 2026-04-22 09:26 | 15.92509 | -77.38256 | 34968 ft | 455 kts | 172° |
| 2026-04-22 09:27 | 15.84840 | -77.36748 | 34970 ft | 455 kts | 172° |
| 2026-04-22 09:27 | 15.77113 | -77.35216 | 34961 ft | 455 kts | 172° |
| 2026-04-22 09:28 | 15.69358 | -77.33673 | 34953 ft | 455 kts | 172° |
| 2026-04-22 09:28 | 15.61633 | -77.32138 | 34953 ft | 455 kts | 172° |
| 2026-04-22 09:29 | 15.53891 | -77.30598 | 34955 ft | 455 kts | 172° |
| 2026-04-22 09:29 | 15.46307 | -77.29091 | 34960 ft | 455 kts | 172° |
| 2026-04-22 09:30 | 15.38680 | -77.27576 | 34960 ft | 455 kts | 172° |
| 2026-04-22 09:30 | 15.31015 | -77.26055 | 34961 ft | 454 kts | 172° |
| 2026-04-22 09:31 | 15.23317 | -77.24528 | 34968 ft | 455 kts | 172° |
| 2026-04-22 09:31 | 15.15526 | -77.22983 | 34964 ft | 455 kts | 172° |
| 2026-04-22 09:32 | 15.07847 | -77.21460 | 34953 ft | 455 kts | 172° |
| 2026-04-22 09:32 | 15.00113 | -77.19929 | 34952 ft | 455 kts | 172° |
| 2026-04-22 09:33 | 14.92416 | -77.18388 | 34951 ft | 455 kts | 172° |
| 2026-04-22 09:33 | 14.84796 | -77.16853 | 34952 ft | 454 kts | 172° |
| 2026-04-22 09:34 | 14.77165 | -77.15315 | 34951 ft | 454 kts | 172° |
| 2026-04-22 09:34 | 14.69575 | -77.13789 | 34952 ft | 454 kts | 172° |
| 2026-04-22 09:35 | 14.58259 | -77.11513 | 34952 ft | 453 kts | 172° |
| 2026-04-22 09:35 | 14.50681 | -77.09988 | 34952 ft | 453 kts | 172° |
| 2026-04-22 09:36 | 14.43057 | -77.08459 | 34950 ft | 453 kts | 172° |
| 2026-04-22 09:36 | 14.35457 | -77.06936 | 34951 ft | 453 kts | 172° |
| 2026-04-22 09:37 | 14.27871 | -77.05415 | 34951 ft | 452 kts | 172° |
| 2026-04-22 09:37 | 14.20310 | -77.03899 | 34953 ft | 451 kts | 172° |
| 2026-04-22 09:38 | 14.12698 | -77.02374 | 34953 ft | 452 kts | 172° |
| 2026-04-22 09:38 | 14.05161 | -77.00867 | 34947 ft | 451 kts | 172° |
| 2026-04-22 09:39 | 13.97550 | -76.99345 | 34936 ft | 450 kts | 172° |
| 2026-04-22 09:39 | 13.90015 | -76.97838 | 34942 ft | 450 kts | 172° |
| 2026-04-22 09:40 | 13.82477 | -76.96333 | 34948 ft | 450 kts | 172° |
| 2026-04-22 09:40 | 13.74884 | -76.94818 | 34947 ft | 451 kts | 172° |
| 2026-04-22 09:41 | 13.67358 | -76.93317 | 34950 ft | 450 kts | 172° |
| 2026-04-22 09:41 | 13.59780 | -76.91808 | 34951 ft | 450 kts | 171° |
| 2026-04-22 09:42 | 13.52257 | -76.90308 | 34941 ft | 449 kts | 171° |
| 2026-04-22 09:42 | 13.44729 | -76.88810 | 34935 ft | 449 kts | 172° |
| 2026-04-22 09:43 | 13.37278 | -76.87328 | 34938 ft | 449 kts | 171° |
| 2026-04-22 09:43 | 13.29826 | -76.85846 | 34940 ft | 448 kts | 171° |
| 2026-04-22 09:44 | 13.22355 | -76.84362 | 34938 ft | 448 kts | 171° |
| 2026-04-22 09:44 | 13.14883 | -76.82879 | 34946 ft | 449 kts | 171° |
| 2026-04-22 09:45 | 13.07409 | -76.81394 | 34952 ft | 449 kts | 171° |
| 2026-04-22 09:45 | 12.99922 | -76.79909 | 34951 ft | 448 kts | 171° |
| 2026-04-22 09:46 | 12.92440 | -76.78426 | 34943 ft | 448 kts | 171° |
| 2026-04-22 09:46 | 12.84923 | -76.76935 | 34933 ft | 448 kts | 171° |
| 2026-04-22 09:47 | 12.77479 | -76.75460 | 34932 ft | 448 kts | 171° |
| 2026-04-22 09:47 | 12.70017 | -76.73981 | 34933 ft | 448 kts | 171° |
| 2026-04-22 09:48 | 12.62580 | -76.72521 | 34933 ft | 448 kts | 171° |
| 2026-04-22 09:48 | 12.55030 | -76.71043 | 34938 ft | 448 kts | 171° |
| 2026-04-22 09:49 | 12.47546 | -76.69574 | 34941 ft | 448 kts | 171° |
| 2026-04-22 09:49 | 12.40117 | -76.68117 | 34940 ft | 448 kts | 171° |
| 2026-04-22 09:50 | 12.32660 | -76.66653 | 34936 ft | 447 kts | 171° |
| 2026-04-22 09:50 | 12.25201 | -76.65192 | 34933 ft | 447 kts | 171° |
| 2026-04-22 09:51 | 12.17738 | -76.63729 | 34932 ft | 447 kts | 171° |
| 2026-04-22 09:51 | 12.10296 | -76.62272 | 34932 ft | 448 kts | 171° |
| 2026-04-22 09:52 | 12.02909 | -76.60826 | 34934 ft | 448 kts | 171° |
| 2026-04-22 09:52 | 11.95428 | -76.59363 | 34933 ft | 448 kts | 171° |
| 2026-04-22 09:53 | 11.88013 | -76.57912 | 34935 ft | 447 kts | 171° |
| 2026-04-22 09:53 | 11.80642 | -76.56473 | 34931 ft | 448 kts | 171° |
| 2026-04-22 09:54 | 11.73180 | -76.55015 | 34928 ft | 448 kts | 171° |
| 2026-04-22 09:54 | 11.65718 | -76.53558 | 34931 ft | 448 kts | 171° |
| 2026-04-22 09:55 | 11.58270 | -76.52105 | 34931 ft | 448 kts | 171° |
| 2026-04-22 09:55 | 11.50798 | -76.50648 | 34931 ft | 447 kts | 171° |
| 2026-04-22 09:56 | 11.43360 | -76.49199 | 34928 ft | 447 kts | 171° |
| 2026-04-22 09:56 | 11.35921 | -76.47749 | 34924 ft | 447 kts | 171° |
| 2026-04-22 09:57 | 11.28500 | -76.46237 | 34916 ft | 448 kts | 167° |
| 2026-04-22 09:57 | 11.21102 | -76.44687 | 34920 ft | 447 kts | 172° |
| 2026-04-22 09:58 | 11.13662 | -76.43361 | 34922 ft | 447 kts | 171° |
| 2026-04-22 09:58 | 11.06178 | -76.41949 | 34926 ft | 447 kts | 171° |
| 2026-04-22 09:59 | 10.98741 | -76.40515 | 34931 ft | 447 kts | 171° |
| 2026-04-22 09:59 | 10.91258 | -76.39067 | 34933 ft | 447 kts | 171° |
| 2026-04-22 10:00 | 10.83889 | -76.37637 | 34926 ft | 447 kts | 171° |
| 2026-04-22 10:00 | 10.76620 | -76.36227 | 34917 ft | 447 kts | 171° |
| 2026-04-22 10:01 | 10.69107 | -76.34770 | 34915 ft | 447 kts | 171° |
| 2026-04-22 10:01 | 10.61778 | -76.33350 | 34917 ft | 447 kts | 171° |
| 2026-04-22 10:02 | 10.54399 | -76.31921 | 34921 ft | 446 kts | 171° |
| 2026-04-22 10:02 | 10.47038 | -76.30496 | 34920 ft | 447 kts | 171° |
| 2026-04-22 10:03 | 10.39645 | -76.29065 | 34924 ft | 447 kts | 171° |
| 2026-04-22 10:03 | 10.32249 | -76.27635 | 34922 ft | 447 kts | 170° |
| 2026-04-22 10:04 | 10.24845 | -76.26202 | 34918 ft | 447 kts | 171° |
| 2026-04-22 10:04 | 10.17501 | -76.24783 | 34911 ft | 447 kts | 170° |
| 2026-04-22 10:05 | 10.10072 | -76.23350 | 34911 ft | 448 kts | 170° |
| 2026-04-22 10:05 | 10.02714 | -76.21929 | 34911 ft | 448 kts | 170° |
| 2026-04-22 10:06 | 9.95267 | -76.20492 | 34911 ft | 447 kts | 170° |
| 2026-04-22 10:06 | 9.87905 | -76.19071 | 34918 ft | 448 kts | 170° |
| 2026-04-22 10:07 | 9.80582 | -76.17657 | 34928 ft | 448 kts | 170° |
| 2026-04-22 10:07 | 9.73169 | -76.16228 | 34924 ft | 447 kts | 170° |
| 2026-04-22 10:08 | 9.65786 | -76.14803 | 34918 ft | 448 kts | 170° |
| 2026-04-22 10:08 | 9.58379 | -76.13376 | 34913 ft | 449 kts | 170° |
| 2026-04-22 10:09 | 9.50908 | -76.11906 | 34911 ft | 449 kts | 169° |
| 2026-04-22 10:09 | 9.43456 | -76.10418 | 34911 ft | 449 kts | 169° |
| 2026-04-22 10:10 | 9.36064 | -76.08942 | 34918 ft | 449 kts | 169° |
| 2026-04-22 10:10 | 9.28673 | -76.07469 | 34928 ft | 449 kts | 169° |
| 2026-04-22 10:11 | 9.21310 | -76.06000 | 34932 ft | 449 kts | 169° |
| 2026-04-22 10:11 | 9.13941 | -76.04533 | 34934 ft | 449 kts | 169° |
| 2026-04-22 10:12 | 9.06541 | -76.03059 | 34934 ft | 450 kts | 169° |
| 2026-04-22 10:12 | 8.99188 | -76.01596 | 34928 ft | 450 kts | 169° |
| 2026-04-22 10:13 | 8.91795 | -76.00124 | 34925 ft | 451 kts | 169° |
| 2026-04-22 10:13 | 8.84389 | -75.98650 | 34932 ft | 450 kts | 169° |
| 2026-04-22 10:14 | 8.76904 | -75.97163 | 34937 ft | 450 kts | 169° |
| 2026-04-22 10:14 | 8.69438 | -75.95680 | 34945 ft | 451 kts | 169° |
| 2026-04-22 10:15 | 8.61981 | -75.94199 | 34949 ft | 451 kts | 169° |
| 2026-04-22 10:15 | 8.54463 | -75.92705 | 34945 ft | 451 kts | 169° |
| 2026-04-22 10:16 | 8.46940 | -75.91210 | 34946 ft | 451 kts | 169° |
| 2026-04-22 10:16 | 8.39484 | -75.89732 | 34950 ft | 451 kts | 169° |
| 2026-04-22 10:17 | 8.31971 | -75.88241 | 34952 ft | 451 kts | 169° |
| 2026-04-22 10:17 | 8.24520 | -75.86762 | 34955 ft | 452 kts | 169° |
| 2026-04-22 10:18 | 8.17064 | -75.85284 | 34970 ft | 451 kts | 169° |
| 2026-04-22 10:18 | 8.09583 | -75.83801 | 34986 ft | 452 kts | 169° |
| 2026-04-22 10:19 | 8.02103 | -75.82316 | 35004 ft | 452 kts | 169° |
| 2026-04-22 10:19 | 7.94603 | -75.80899 | 35014 ft | 452 kts | 170° |
| 2026-04-22 10:20 | 7.87183 | -75.79628 | 35009 ft | 451 kts | 170° |
| 2026-04-22 10:20 | 7.79745 | -75.78343 | 35003 ft | 451 kts | 170° |
| 2026-04-22 10:21 | 7.72248 | -75.77040 | 35003 ft | 451 kts | 170° |
| 2026-04-22 10:21 | 7.64793 | -75.75742 | 35034 ft | 452 kts | 170° |
| 2026-04-22 10:22 | 7.57298 | -75.74435 | 35075 ft | 452 kts | 170° |
| 2026-04-22 10:22 | 7.49798 | -75.73131 | 35103 ft | 452 kts | 170° |
| 2026-04-22 10:23 | 7.42307 | -75.71827 | 35132 ft | 452 kts | 170° |
| 2026-04-22 10:23 | 7.34788 | -75.70518 | 35140 ft | 452 kts | 170° |
| 2026-04-22 10:24 | 7.27278 | -75.69212 | 35156 ft | 451 kts | 170° |
| 2026-04-22 10:24 | 7.19760 | -75.67905 | 35175 ft | 452 kts | 169° |
| 2026-04-22 10:25 | 7.12275 | -75.66604 | 34801 ft | 453 kts | 169° |
| 2026-04-22 10:25 | 7.08469 | -75.65942 | 34055 ft | 448 kts | 169° |
| 2026-04-22 10:25 | 7.04696 | -75.65286 | 33199 ft | 445 kts | 169° |
| 2026-04-22 10:26 | 7.00953 | -75.64635 | 32359 ft | 446 kts | 169° |
| 2026-04-22 10:26 | 6.97145 | -75.63970 | 31454 ft | 448 kts | 170° |
| 2026-04-22 10:26 | 6.93381 | -75.63314 | 30506 ft | 451 kts | 170° |
| 2026-04-22 10:26 | 6.89568 | -75.62651 | 29524 ft | 453 kts | 170° |
| 2026-04-22 10:27 | 6.85857 | -75.62006 | 28543 ft | 456 kts | 170° |
| 2026-04-22 10:27 | 6.82011 | -75.61340 | 27672 ft | 455 kts | 170° |
| 2026-04-22 10:27 | 6.78171 | -75.60678 | 27049 ft | 448 kts | 171° |
| 2026-04-22 10:27 | 6.74417 | -75.60043 | 26425 ft | 443 kts | 171° |
| 2026-04-22 10:28 | 6.70708 | -75.59415 | 25779 ft | 438 kts | 170° |
| 2026-04-22 10:28 | 6.67062 | -75.58799 | 25118 ft | 434 kts | 170° |
| 2026-04-22 10:28 | 6.63446 | -75.58186 | 24455 ft | 431 kts | 170° |
| 2026-04-22 10:28 | 6.59854 | -75.57574 | 23791 ft | 427 kts | 170° |
| 2026-04-22 10:29 | 6.56288 | -75.56966 | 23148 ft | 424 kts | 170° |
| 2026-04-22 10:29 | 6.52787 | -75.56369 | 22505 ft | 421 kts | 170° |
| 2026-04-22 10:29 | 6.49309 | -75.55777 | 21882 ft | 418 kts | 170° |
| 2026-04-22 10:29 | 6.45885 | -75.55194 | 21260 ft | 416 kts | 170° |
| 2026-04-22 10:30 | 6.42527 | -75.54629 | 20646 ft | 414 kts | 171° |
| 2026-04-22 10:30 | 6.39239 | -75.54234 | 20035 ft | 412 kts | 175° |
| 2026-04-22 10:30 | 6.36046 | -75.54073 | 19436 ft | 410 kts | 178° |
| 2026-04-22 10:30 | 6.33061 | -75.54015 | 18856 ft | 409 kts | 179° |
| 2026-04-22 10:31 | 6.30148 | -75.53968 | 18286 ft | 408 kts | 179° |
| 2026-04-22 10:31 | 6.27174 | -75.53918 | 17707 ft | 406 kts | 179° |
| 2026-04-22 10:31 | 6.24090 | -75.53865 | 17113 ft | 404 kts | 178° |
| 2026-04-22 10:31 | 6.20937 | -75.53808 | 16507 ft | 401 kts | 179° |
| 2026-04-22 10:32 | 6.17726 | -75.53748 | 15868 ft | 398 kts | 179° |
| 2026-04-22 10:32 | 6.14560 | -75.53691 | 15254 ft | 395 kts | 179° |
| 2026-04-22 10:32 | 6.11436 | -75.53648 | 14643 ft | 391 kts | 180° |
| 2026-04-22 10:32 | 6.08273 | -75.53670 | 14249 ft | 380 kts | 181° |
| 2026-04-22 10:33 | 6.05319 | -75.53706 | 14046 ft | 352 kts | 181° |
| 2026-04-22 10:33 | 6.02757 | -75.53736 | 13865 ft | 326 kts | 181° |
| 2026-04-22 10:33 | 6.00305 | -75.53762 | 13696 ft | 303 kts | 181° |
| 2026-04-22 10:33 | 5.97990 | -75.53785 | 13551 ft | 289 kts | 181° |
| 2026-04-22 10:34 | 5.95747 | -75.53805 | 13426 ft | 275 kts | 181° |
| 2026-04-22 10:34 | 5.93600 | -75.53823 | 13306 ft | 263 kts | 181° |
| 2026-04-22 10:34 | 5.91489 | -75.53843 | 13202 ft | 264 kts | 181° |
| 2026-04-22 10:34 | 5.89376 | -75.53571 | 13017 ft | 265 kts | 154° |
| 2026-04-22 10:35 | 5.87847 | -75.52173 | 12929 ft | 263 kts | 117° |
| 2026-04-22 10:35 | 5.87350 | -75.50234 | 12820 ft | 252 kts | 90° |
| 2026-04-22 10:35 | 5.87402 | -75.48328 | 12562 ft | 247 kts | 88° |
| 2026-04-22 10:35 | 5.87464 | -75.46526 | 12316 ft | 243 kts | 88° |
| 2026-04-22 10:36 | 5.87512 | -75.44656 | 12114 ft | 236 kts | 85° |
| 2026-04-22 10:36 | 5.88097 | -75.42990 | 11973 ft | 232 kts | 44° |
| 2026-04-22 10:36 | 5.89657 | -75.42137 | 11978 ft | 233 kts | 8° |
| 2026-04-22 10:36 | 5.91320 | -75.42020 | 11602 ft | 240 kts | 358° |
| 2026-04-22 10:37 | 5.93205 | -75.42088 | 11015 ft | 250 kts | 357° |
| 2026-04-22 10:37 | 5.97089 | -75.42188 | 10252 ft | 241 kts | 359° |
| 2026-04-22 10:37 | 5.98937 | -75.42202 | 9911 ft | 232 kts | 359° |
| 2026-04-22 10:38 | 6.00741 | -75.42212 | 9655 ft | 214 kts | 359° |
| 2026-04-22 10:38 | 6.02353 | -75.42221 | 9336 ft | 196 kts | 359° |
| 2026-04-22 10:38 | 6.03897 | -75.42232 | 9033 ft | 183 kts | 359° |
| 2026-04-22 10:38 | 6.05436 | -75.42242 | 8761 ft | 182 kts | 359° |
| 2026-04-22 10:39 | 6.06865 | -75.42252 | 8461 ft | 167 kts | 0° |
| 2026-04-22 10:39 | 6.08137 | -75.42261 | 8203 ft | 155 kts | 360° |
| 2026-04-22 10:39 | 6.09280 | -75.42268 | 8015 ft | 154 kts | 360° |
| 2026-04-22 10:39 | 6.10450 | -75.42270 | 7818 ft | 153 kts | 0° |
| 2026-04-22 10:40 | 6.11625 | -75.42275 | 7618 ft | 153 kts | 0° |
| 2026-04-22 10:40 | 6.12780 | -75.42282 | 7415 ft | 152 kts | 360° |
| 2026-04-22 10:40 | 6.13961 | -75.42302 | 7189 ft | 152 kts | 360° |
| 2026-04-22 10:40 | 6.15091 | -75.42302 | 6985 ft | 150 kts | 0° |
| 2026-04-22 10:41 | 6.16050 | -75.42308 | 6975 ft | 117 kts | 359° |
| 2026-04-22 10:41 | 6.16705 | -75.42313 | 6979 ft | 67 kts | 360° |
| 2026-04-22 10:41 | 6.16982 | -75.42339 | 6989 ft | 24 kts | 327° |
| 2026-04-22 10:41 | 6.17108 | -75.42418 | 6998 ft | 18 kts | 329° |
| 2026-04-22 10:42 | 6.17184 | -75.42493 | 7001 ft | 15 kts | 270° |
| 2026-04-22 10:42 | 6.17175 | -75.42596 | 7003 ft | 12 kts | 251° |
| 2026-04-22 10:42 | 6.17105 | -75.42616 | 7007 ft | 8 kts | 182° |
| 2026-04-22 10:42 | 6.17062 | -75.42629 | 7010 ft | 5 kts | 212° |
| 2026-04-22 10:43 | 6.17030 | -75.42653 | 7012 ft | 5 kts | 218° |
| 2026-04-22 10:43 | 6.16991 | -75.42683 | 7012 ft | 8 kts | 218° |
| 2026-04-22 10:43 | 6.16946 | -75.42726 | 7012 ft | 9 kts | 233° |
| 2026-04-22 10:43 | 6.16916 | -75.42789 | 7012 ft | 10 kts | 251° |
| 2026-04-22 10:44 | 6.16893 | -75.42873 | 7009 ft | 13 kts | 256° |
| 2026-04-22 10:44 | 6.16889 | -75.42894 | 7008 ft | 1 kts | 285° |
| 2026-04-22 10:44 | 6.16905 | -75.42908 | 7008 ft | 3 kts | 337° |
| 2026-04-22 10:44 | 6.16911 | -75.42909 | 7008 ft | 0 kts | 345° |
| 2026-04-22 10:45 | 6.16928 | -75.42912 | 7010 ft | 3 kts | 348° |
| 2026-04-22 10:45 | 6.16938 | -75.42915 | 7011 ft | 0 kts | 346° |